Stephenson, Michigan
Current Conditions -  °F | °C
As of 10:55 AM on Saturday 22 Nov 2014 (Local Time) from KMNM Reporting Station
Overcast Overcast  
Wind Chill: 29°   Ceiling: 1100
Heat Index: 36°   Visibility: 5mi
Dew Point: 30°   Wind: 9mph
Humidity: 81%   Direction: 240°WSW
Pressure: 29.79"   Gusts: 16mph
Location:  45.42°N, 87.61°W
Report Text: KMNM 221655Z AUTO 24008G14KT 220V280 5SM OVC011 02/M01 A2979 RMK AO1
Loading
Personal Weather Stations






























Interactive Weather Map New forecast layout! Learn more

10-Day Weather Forecast

Advertisements
Track Severe Weather on mobile